Overview Statistics Trail Chart Weather Telemetry Raw packets
 

This is the latest recevied weather packets stored in our database for station/object OE6ATD-13. If no packets are shown the sender has not sent any weather packets the latest 10 day(s).

<< 9 10 11 12 13 14 15 >>
Time Temp. Humidity Pressure Rain* Wind** Luminosity Snow
1788548421 22.22° C 69% 1014.9 hPa 0 mm - 0 W/m² -
1788547816 22.78° C 67% 1014.8 hPa 0 mm - 0 W/m² -
1788547227 22.78° C 64% 1014.8 hPa 0 mm - 0 W/m² -
1788546623 23.33° C 63% 1014.8 hPa 0 mm - 0 W/m² -
1788546019 23.89° C 61% 1014.9 hPa 0 mm - 0 W/m² -
1788545430 24.44° C 60% 1014.7 hPa 0 mm - 0 W/m² -
1788544826 25.56° C 58% 1014.6 hPa 0 mm - 0 W/m² -
1788544222 26.11° C 53% 1014.6 hPa 0 mm - 0 W/m² -
1788543618 27.22° C 48% 1014.6 hPa 0 mm - 0 W/m² -
1788543029 27.78° C 43% 1014.6 hPa 0 mm - 3 W/m² -
1788542417 29.44° C 40% 1014.7 hPa 0 mm - 8 W/m² -
1788541828 31.11° C 36% 1014.8 hPa 0 mm - 17 W/m² -
1788541223 32.22° C 33% 1014.8 hPa 0 mm - 27 W/m² -
1788540619 32.78° C 31% 1014.9 hPa 0 mm - 34 W/m² -
1788540030 33.33° C 30% 1014.9 hPa 0 mm - 41 W/m² -
1788539426 33.33° C 30% 1015 hPa 0 mm - 50 W/m² -
1788538825 33.33° C 29% 1015.1 hPa 0 mm - 61 W/m² -
1788538235 33.89° C 29% 1015.1 hPa 0 mm - 76 W/m² -
1788537617 34.44° C 28% 1015.2 hPa 0 mm - 95 W/m² -
1788537028 34.44° C 26% 1015.3 hPa 0 mm - 120 W/m² -
1788536424 35° C 27% 1015.4 hPa 0 mm - 147 W/m² -
1788535826 34.44° C 27% 1015.5 hPa 0 mm - 178 W/m² -
1788535223 34.44° C 26% 1015.5 hPa 0 mm - 211 W/m² -
1788534618 35° C 27% 1015.7 hPa 0 mm - 249 W/m² -
1788534028 34.44° C 27% 1015.7 hPa 0 mm - 284 W/m² -

* Rain latest hour (hover to see other rain measurements)
** Current wind speed in m/s (hover to see current wind gust speed)